sensor_id;sensor_type;location;lat;lon;timestamp;pressure;altitude;pressure_sealevel;temperature;humidity
27958;BME280;15295;42.658;23.374;2023-02-15T00:00:15;95757.41;;;7.14;49.37
27958;BME280;15295;42.658;23.374;2023-02-15T00:02:41;95769.03;;;7.15;49.59
27958;BME280;15295;42.658;23.374;2023-02-15T00:05:07;95767.56;;;7.17;49.45
27958;BME280;15295;42.658;23.374;2023-02-15T00:07:33;95768.00;;;7.19;49.51
27958;BME280;15295;42.658;23.374;2023-02-15T00:09:59;95764.31;;;7.12;49.50
27958;BME280;15295;42.658;23.374;2023-02-15T00:12:24;95756.03;;;7.08;49.78
27958;BME280;15295;42.658;23.374;2023-02-15T00:14:50;95762.19;;;7.05;49.75
27958;BME280;15295;42.658;23.374;2023-02-15T00:17:15;95787.53;;;7.09;49.88
27958;BME280;15295;42.658;23.374;2023-02-15T00:19:41;95783.66;;;7.10;49.91
27958;BME280;15295;42.658;23.374;2023-02-15T00:22:06;95778.22;;;7.10;50.00
27958;BME280;15295;42.658;23.374;2023-02-15T00:24:32;95779.97;;;7.03;50.06
27958;BME280;15295;42.658;23.374;2023-02-15T00:26:58;95782.78;;;7.06;50.06
27958;BME280;15295;42.658;23.374;2023-02-15T00:29:23;95784.16;;;7.00;50.18
27958;BME280;15295;42.658;23.374;2023-02-15T00:31:49;95780.56;;;6.96;50.25
27958;BME280;15295;42.658;23.374;2023-02-15T00:34:20;95797.75;;;7.00;50.37
27958;BME280;15295;42.658;23.374;2023-02-15T00:36:46;95783.50;;;7.03;50.12
27958;BME280;15295;42.658;23.374;2023-02-15T00:39:12;95782.59;;;6.99;50.35
27958;BME280;15295;42.658;23.374;2023-02-15T00:41:38;95785.31;;;6.99;50.24
27958;BME280;15295;42.658;23.374;2023-02-15T00:44:11;95793.13;;;7.00;50.13
27958;BME280;15295;42.658;23.374;2023-02-15T00:46:37;95790.75;;;6.99;50.12
27958;BME280;15295;42.658;23.374;2023-02-15T00:49:03;95790.75;;;6.99;50.29
27958;BME280;15295;42.658;23.374;2023-02-15T00:51:29;95790.63;;;6.95;50.45
27958;BME280;15295;42.658;23.374;2023-02-15T00:53:55;95788.13;;;7.03;50.28
27958;BME280;15295;42.658;23.374;2023-02-15T00:56:20;95783.81;;;7.01;50.33
27958;BME280;15295;42.658;23.374;2023-02-15T00:58:46;95782.00;;;7.06;50.37
27958;BME280;15295;42.658;23.374;2023-02-15T01:01:16;95789.69;;;7.03;50.26
27958;BME280;15295;42.658;23.374;2023-02-15T01:03:45;95768.44;;;6.93;50.12
27958;BME280;15295;42.658;23.374;2023-02-15T01:06:12;95770.81;;;6.95;50.22
27958;BME280;15295;42.658;23.374;2023-02-15T01:08:38;95766.19;;;6.95;50.28
27958;BME280;15295;42.658;23.374;2023-02-15T01:11:12;95762.13;;;6.89;50.26
27958;BME280;15295;42.658;23.374;2023-02-15T01:13:38;95760.88;;;6.87;50.42
27958;BME280;15295;42.658;23.374;2023-02-15T01:16:07;95778.63;;;6.96;50.18
27958;BME280;15295;42.658;23.374;2023-02-15T01:18:33;95751.84;;;6.83;50.33
27958;BME280;15295;42.658;23.374;2023-02-15T01:20:59;95752.06;;;6.90;50.28
27958;BME280;15295;42.658;23.374;2023-02-15T01:23:25;95774.00;;;6.97;50.25
27958;BME280;15295;42.658;23.374;2023-02-15T01:25:50;95771.97;;;6.94;50.40
27958;BME280;15295;42.658;23.374;2023-02-15T01:28:15;95764.50;;;6.91;50.53
27958;BME280;15295;42.658;23.374;2023-02-15T01:30:41;95770.63;;;6.88;50.56
27958;BME280;15295;42.658;23.374;2023-02-15T01:33:07;95761.16;;;6.82;50.65
27958;BME280;15295;42.658;23.374;2023-02-15T01:35:32;95761.59;;;6.84;50.74
27958;BME280;15295;42.658;23.374;2023-02-15T01:37:58;95761.91;;;6.82;50.80
27958;BME280;15295;42.658;23.374;2023-02-15T01:40:24;95752.56;;;6.80;51.01
27958;BME280;15295;42.658;23.374;2023-02-15T01:42:51;95753.31;;;6.80;50.92
27958;BME280;15295;42.658;23.374;2023-02-15T01:45:31;95750.16;;;6.78;50.99
27958;BME280;15295;42.658;23.374;2023-02-15T01:48:04;95732.75;;;6.67;50.90
27958;BME280;15295;42.658;23.374;2023-02-15T01:50:34;95751.84;;;6.83;50.99
27958;BME280;15295;42.658;23.374;2023-02-15T01:53:08;95748.69;;;6.81;51.10
27958;BME280;15295;42.658;23.374;2023-02-15T01:55:45;95755.72;;;6.82;50.99
27958;BME280;15295;42.658;23.374;2023-02-15T01:58:13;95740.66;;;6.72;51.26
27958;BME280;15295;42.658;23.374;2023-02-15T02:00:39;95741.56;;;6.76;51.02
27958;BME280;15295;42.658;23.374;2023-02-15T02:03:05;95744.97;;;6.73;51.33
27958;BME280;15295;42.658;23.374;2023-02-15T02:05:42;95736.03;;;6.73;51.39
27958;BME280;15295;42.658;23.374;2023-02-15T02:08:07;95740.75;;;6.76;51.38
27958;BME280;15295;42.658;23.374;2023-02-15T02:10:36;95726.56;;;6.67;51.36
27958;BME280;15295;42.658;23.374;2023-02-15T02:13:05;95747.78;;;6.77;51.25
27958;BME280;15295;42.658;23.374;2023-02-15T02:15:52;95748.91;;;6.76;51.24
27958;BME280;15295;42.658;23.374;2023-02-15T02:18:44;95753.22;;;6.77;51.43
27958;BME280;15295;42.658;23.374;2023-02-15T02:38:45;95767.75;;;6.69;51.82
27958;BME280;15295;42.658;23.374;2023-02-15T02:47:20;95762.63;;;6.67;51.98
27958;BME280;15295;42.658;23.374;2023-02-15T02:49:47;95749.50;;;6.69;51.96
27958;BME280;15295;42.658;23.374;2023-02-15T02:52:37;95762.50;;;6.76;51.76
27958;BME280;15295;42.658;23.374;2023-02-15T02:55:16;95757.06;;;6.76;51.84
27958;BME280;15295;42.658;23.374;2023-02-15T02:57:56;95740.13;;;6.67;51.77
27958;BME280;15295;42.658;23.374;2023-02-15T03:00:26;95754.78;;;6.78;51.80
27958;BME280;15295;42.658;23.374;2023-02-15T03:03:01;95773.00;;;6.89;51.68
27958;BME280;15295;42.658;23.374;2023-02-15T03:05:34;95771.44;;;6.88;51.54
27958;BME280;15295;42.658;23.374;2023-02-15T03:08:03;95768.50;;;6.81;51.49
27958;BME280;15295;42.658;23.374;2023-02-15T03:10:31;95783.31;;;6.84;51.63
27958;BME280;15295;42.658;23.374;2023-02-15T03:12:59;95767.94;;;6.76;51.56
27958;BME280;15295;42.658;23.374;2023-02-15T03:15:29;95776.50;;;6.90;51.60
27958;BME280;15295;42.658;23.374;2023-02-15T03:18:17;95782.47;;;6.95;51.44
27958;BME280;15295;42.658;23.374;2023-02-15T03:20:46;95782.69;;;7.03;51.30
27958;BME280;15295;42.658;23.374;2023-02-15T03:23:17;95780.22;;;6.97;51.39
27958;BME280;15295;42.658;23.374;2023-02-15T03:25:50;95785.75;;;7.01;51.42
27958;BME280;15295;42.658;23.374;2023-02-15T03:28:31;95780.88;;;7.07;51.18
27958;BME280;15295;42.658;23.374;2023-02-15T03:31:00;95787.91;;;7.08;51.44
27958;BME280;15295;42.658;23.374;2023-02-15T03:33:28;95785.19;;;7.08;51.28
27958;BME280;15295;42.658;23.374;2023-02-15T03:36:20;95778.69;;;7.12;51.27
27958;BME280;15295;42.658;23.374;2023-02-15T03:39:20;95773.16;;;7.09;51.29
27958;BME280;15295;42.658;23.374;2023-02-15T03:45:01;95780.38;;;7.17;51.25
27958;BME280;15295;42.658;23.374;2023-02-15T03:47:32;95780.94;;;7.10;51.26
27958;BME280;15295;42.658;23.374;2023-02-15T03:52:31;95760.28;;;7.06;51.28
27958;BME280;15295;42.658;23.374;2023-02-15T03:54:58;95782.31;;;7.16;51.23
27958;BME280;15295;42.658;23.374;2023-02-15T03:57:27;95780.94;;;7.22;51.14
27958;BME280;15295;42.658;23.374;2023-02-15T04:00:23;95769.84;;;7.15;51.05
27958;BME280;15295;42.658;23.374;2023-02-15T04:03:28;95777.06;;;7.23;50.94
27958;BME280;15295;42.658;23.374;2023-02-15T04:05:56;95780.94;;;7.22;51.07
27958;BME280;15295;42.658;23.374;2023-02-15T04:08:31;95788.72;;;7.24;51.10
27958;BME280;15295;42.658;23.374;2023-02-15T04:11:17;95787.25;;;7.26;51.01
27958;BME280;15295;42.658;23.374;2023-02-15T04:13:42;95791.22;;;7.29;50.97
27958;BME280;15295;42.658;23.374;2023-02-15T04:16:08;95804.88;;;7.32;50.94
27958;BME280;15295;42.658;23.374;2023-02-15T04:18:37;95802.63;;;7.34;50.86
27958;BME280;15295;42.658;23.374;2023-02-15T04:21:23;95799.91;;;7.34;50.84
27958;BME280;15295;42.658;23.374;2023-02-15T04:24:08;95780.94;;;7.22;50.95
27958;BME280;15295;42.658;23.374;2023-02-15T04:26:52;95793.13;;;7.28;50.77
27958;BME280;15295;42.658;23.374;2023-02-15T04:29:19;95820.69;;;7.42;50.80
27958;BME280;15295;42.658;23.374;2023-02-15T04:31:46;95811.66;;;7.38;50.55
27958;BME280;15295;42.658;23.374;2023-02-15T04:34:12;95825.81;;;7.44;50.72
27958;BME280;15295;42.658;23.374;2023-02-15T04:36:38;95819.22;;;7.45;50.62
27958;BME280;15295;42.658;23.374;2023-02-15T04:39:04;95827.94;;;7.50;50.75
27958;BME280;15295;42.658;23.374;2023-02-15T04:41:29;95818.63;;;7.51;50.41
27958;BME280;15295;42.658;23.374;2023-02-15T04:43:55;95809.38;;;7.40;50.54
27958;BME280;15295;42.658;23.374;2023-02-15T04:46:21;95830.84;;;7.57;50.44
27958;BME280;15295;42.658;23.374;2023-02-15T04:48:46;95813.69;;;7.41;50.79
27958;BME280;15295;42.658;23.374;2023-02-15T04:51:11;95827.34;;;7.57;50.60
27958;BME280;15295;42.658;23.374;2023-02-15T04:53:37;95827.66;;;7.55;50.57
27958;BME280;15295;42.658;23.374;2023-02-15T04:56:03;95823.03;;;7.56;50.58
27958;BME280;15295;42.658;23.374;2023-02-15T04:58:28;95837.88;;;7.58;50.55
27958;BME280;15295;42.658;23.374;2023-02-15T05:00:57;95838.91;;;7.54;50.55
27958;BME280;15295;42.658;23.374;2023-02-15T05:03:24;95834.94;;;7.51;50.53
27958;BME280;15295;42.658;23.374;2023-02-15T05:05:50;95844.88;;;7.59;50.62
27958;BME280;15295;42.658;23.374;2023-02-15T05:08:15;95837.75;;;7.55;50.72
27958;BME280;15295;42.658;23.374;2023-02-15T05:10:41;95837.66;;;7.51;50.79
27958;BME280;15295;42.658;23.374;2023-02-15T05:13:07;95843.19;;;7.55;50.69
27958;BME280;15295;42.658;23.374;2023-02-15T05:15:33;95846.91;;;7.62;50.59
27958;BME280;15295;42.658;23.374;2023-02-15T05:18:01;95846.47;;;7.60;50.69
27958;BME280;15295;42.658;23.374;2023-02-15T05:20:27;95854.72;;;7.64;50.36
27958;BME280;15295;42.658;23.374;2023-02-15T05:22:53;95844.88;;;7.59;50.46
27958;BME280;15295;42.658;23.374;2023-02-15T05:25:19;95841.72;;;7.57;50.54
27958;BME280;15295;42.658;23.374;2023-02-15T05:28:03;95855.00;;;7.59;50.67
27958;BME280;15295;42.658;23.374;2023-02-15T05:31:11;95859.28;;;7.60;50.60
27958;BME280;15295;42.658;23.374;2023-02-15T05:33:37;95859.28;;;7.60;50.48
27958;BME280;15295;42.658;23.374;2023-02-15T05:36:04;95861.31;;;7.63;50.61
27958;BME280;15295;42.658;23.374;2023-02-15T05:38:30;95860.97;;;7.64;50.54
27958;BME280;15295;42.658;23.374;2023-02-15T05:40:55;95848.75;;;7.58;50.47
27958;BME280;15295;42.658;23.374;2023-02-15T05:43:21;95865.44;;;7.72;50.48
27958;BME280;15295;42.658;23.374;2023-02-15T05:45:52;95866.94;;;7.70;50.32
27958;BME280;15295;42.658;23.374;2023-02-15T05:48:19;95859.03;;;7.65;50.23
27958;BME280;15295;42.658;23.374;2023-02-15T05:50:44;95866.16;;;7.69;50.33
27958;BME280;15295;42.658;23.374;2023-02-15T05:53:10;95855.75;;;7.59;50.41
27958;BME280;15295;42.658;23.374;2023-02-15T05:55:40;95866.41;;;7.64;50.36
27958;BME280;15295;42.658;23.374;2023-02-15T05:58:07;95860.97;;;7.64;50.35
27958;BME280;15295;42.658;23.374;2023-02-15T06:00:33;95873.38;;;7.77;50.26
27958;BME280;15295;42.658;23.374;2023-02-15T06:02:58;95880.81;;;7.80;50.05
27958;BME280;15295;42.658;23.374;2023-02-15T06:05:24;95885.13;;;7.82;49.98
27958;BME280;15295;42.658;23.374;2023-02-15T06:07:50;95877.34;;;7.80;50.05
27958;BME280;15295;42.658;23.374;2023-02-15T06:10:16;95876.72;;;7.87;50.04
27958;BME280;15295;42.658;23.374;2023-02-15T06:12:41;95864.81;;;7.91;49.79
27958;BME280;15295;42.658;23.374;2023-02-15T06:15:09;95870.69;;;7.93;49.48
27958;BME280;15295;42.658;23.374;2023-02-15T06:17:34;95876.91;;;7.94;49.64
27958;BME280;15295;42.658;23.374;2023-02-15T06:20:01;95879.31;;;7.95;49.67
27958;BME280;15295;42.658;23.374;2023-02-15T06:22:26;95881.59;;;7.93;49.65
27958;BME280;15295;42.658;23.374;2023-02-15T06:24:51;95880.44;;;7.94;49.36
27958;BME280;15295;42.658;23.374;2023-02-15T06:27:17;95880.97;;;8.00;49.28
27958;BME280;15295;42.658;23.374;2023-02-15T06:29:42;95889.66;;;8.05;49.35
27958;BME280;15295;42.658;23.374;2023-02-15T06:32:07;95889.06;;;8.12;49.24
27958;BME280;15295;42.658;23.374;2023-02-15T06:34:33;95892.22;;;8.14;49.18
27958;BME280;15295;42.658;23.374;2023-02-15T06:36:58;95888.03;;;8.16;49.07
27958;BME280;15295;42.658;23.374;2023-02-15T06:39:26;95871.50;;;8.09;48.89
27958;BME280;15295;42.658;23.374;2023-02-15T06:41:51;95873.09;;;8.10;48.86
27958;BME280;15295;42.658;23.374;2023-02-15T06:44:31;95887.31;;;8.19;48.71
27958;BME280;15295;42.658;23.374;2023-02-15T06:46:56;95893.19;;;8.21;48.78
27958;BME280;15295;42.658;23.374;2023-02-15T06:49:21;95884.41;;;8.12;48.92
27958;BME280;15295;42.658;23.374;2023-02-15T06:51:47;95884.25;;;8.21;48.69
27958;BME280;15295;42.658;23.374;2023-02-15T06:54:12;95889.88;;;8.28;48.55
27958;BME280;15295;42.658;23.374;2023-02-15T06:56:38;95877.88;;;8.29;48.67
27958;BME280;15295;42.658;23.374;2023-02-15T06:59:04;95875.66;;;8.34;48.69
27958;BME280;15295;42.658;23.374;2023-02-15T07:01:30;95873.47;;;8.40;48.50
27958;BME280;15295;42.658;23.374;2023-02-15T07:03:55;95873.72;;;8.35;48.24
27958;BME280;15295;42.658;23.374;2023-02-15T07:06:20;95876.28;;;8.43;48.15
27958;BME280;15295;42.658;23.374;2023-02-15T07:08:46;95875.22;;;8.48;47.94
27958;BME280;15295;42.658;23.374;2023-02-15T07:11:17;95879.88;;;8.47;47.86
27958;BME280;15295;42.658;23.374;2023-02-15T07:14:01;95870.03;;;8.43;47.78
27958;BME280;15295;42.658;23.374;2023-02-15T07:16:27;95883.72;;;8.62;47.81
27958;BME280;15295;42.658;23.374;2023-02-15T07:18:53;95886.72;;;8.73;47.37
27958;BME280;15295;42.658;23.374;2023-02-15T07:21:28;95891.53;;;8.79;47.09
27958;BME280;15295;42.658;23.374;2023-02-15T07:23:56;95903.50;;;8.90;46.88
27958;BME280;15295;42.658;23.374;2023-02-15T07:26:22;95889.97;;;8.94;46.82
27958;BME280;15295;42.658;23.374;2023-02-15T07:28:48;95893.56;;;8.98;46.61
27958;BME280;15295;42.658;23.374;2023-02-15T07:31:15;95888.47;;;9.15;46.33
27958;BME280;15295;42.658;23.374;2023-02-15T07:33:41;95889.72;;;9.18;45.96
27958;BME280;15295;42.658;23.374;2023-02-15T07:36:07;95886.34;;;9.24;45.92
27958;BME280;15295;42.658;23.374;2023-02-15T07:38:39;95862.97;;;9.23;45.60
27958;BME280;15295;42.658;23.374;2023-02-15T07:41:07;95870.13;;;9.31;45.74
27958;BME280;15295;42.658;23.374;2023-02-15T07:43:35;95873.53;;;9.44;45.27
27958;BME280;15295;42.658;23.374;2023-02-15T07:46:09;95862.97;;;9.62;44.93
27958;BME280;15295;42.658;23.374;2023-02-15T07:48:37;95870.00;;;9.63;44.29
27958;BME280;15295;42.658;23.374;2023-02-15T07:51:06;95876.31;;;9.86;44.31
27958;BME280;15295;42.658;23.374;2023-02-15T07:53:32;95872.81;;;10.08;43.40
27958;BME280;15295;42.658;23.374;2023-02-15T07:55:59;95882.94;;;10.27;43.34
27958;BME280;15295;42.658;23.374;2023-02-15T07:58:24;95862.25;;;10.48;42.55
27958;BME280;15295;42.658;23.374;2023-02-15T08:01:17;95873.38;;;10.85;42.37
27958;BME280;15295;42.658;23.374;2023-02-15T08:03:43;95874.38;;;10.73;41.61
27958;BME280;15295;42.658;23.374;2023-02-15T08:06:09;95873.19;;;10.71;42.13
27958;BME280;15295;42.658;23.374;2023-02-15T08:08:36;95868.22;;;10.80;42.25
27958;BME280;15295;42.658;23.374;2023-02-15T08:13:53;95876.69;;;11.24;41.21
27958;BME280;15295;42.658;23.374;2023-02-15T08:19:00;95886.31;;;11.14;40.93
27958;BME280;15295;42.658;23.374;2023-02-15T08:21:33;95886.69;;;11.13;41.03
27958;BME280;15295;42.658;23.374;2023-02-15T08:23:59;95888.63;;;11.12;40.98
27958;BME280;15295;42.658;23.374;2023-02-15T08:26:27;95890.06;;;11.03;41.21
27958;BME280;15295;42.658;23.374;2023-02-15T08:28:52;95887.53;;;10.91;41.16
27958;BME280;15295;42.658;23.374;2023-02-15T08:31:20;95886.03;;;10.70;41.70
27958;BME280;15295;42.658;23.374;2023-02-15T08:33:47;95876.03;;;10.55;41.60
27958;BME280;15295;42.658;23.374;2023-02-15T08:36:21;95895.03;;;10.48;42.13
27958;BME280;15295;42.658;23.374;2023-02-15T08:38:47;95889.56;;;10.48;42.08
27958;BME280;15295;42.658;23.374;2023-02-15T08:41:19;95884.78;;;10.42;42.13
27958;BME280;15295;42.658;23.374;2023-02-15T08:43:47;95890.31;;;10.45;42.22
27958;BME280;15295;42.658;23.374;2023-02-15T08:46:14;95877.63;;;10.34;41.95
27958;BME280;15295;42.658;23.374;2023-02-15T08:48:40;95877.72;;;10.18;42.09
27958;BME280;15295;42.658;23.374;2023-02-15T08:51:17;95896.84;;;10.18;42.43
27958;BME280;15295;42.658;23.374;2023-02-15T08:53:46;95887.13;;;10.21;42.56
27958;BME280;15295;42.658;23.374;2023-02-15T08:56:14;95886.72;;;10.19;42.68
27958;BME280;15295;42.658;23.374;2023-02-15T08:58:40;95894.19;;;10.22;42.25
27958;BME280;15295;42.658;23.374;2023-02-15T09:01:10;95882.69;;;10.13;42.22
27958;BME280;15295;42.658;23.374;2023-02-15T09:03:36;95894.53;;;10.20;42.33
27958;BME280;15295;42.658;23.374;2023-02-15T09:06:01;95900.03;;;10.43;41.97
27958;BME280;15295;42.658;23.374;2023-02-15T09:08:28;95910.94;;;10.65;41.56
27958;BME280;15295;42.658;23.374;2023-02-15T09:11:14;95888.03;;;10.73;40.77
27958;BME280;15295;42.658;23.374;2023-02-15T09:13:48;95886.00;;;10.67;40.88
27958;BME280;15295;42.658;23.374;2023-02-15T09:16:14;95889.94;;;10.69;40.88
27958;BME280;15295;42.658;23.374;2023-02-15T09:18:42;95891.56;;;10.74;40.17
27958;BME280;15295;42.658;23.374;2023-02-15T09:21:13;95894.72;;;10.76;39.99
27958;BME280;15295;42.658;23.374;2023-02-15T09:23:40;95890.88;;;10.80;39.71
27958;BME280;15295;42.658;23.374;2023-02-15T09:26:11;95893.88;;;10.95;39.73
27958;BME280;15295;42.658;23.374;2023-02-15T09:28:37;95889.22;;;10.99;39.85
27958;BME280;15295;42.658;23.374;2023-02-15T09:31:15;95898.47;;;11.17;39.27
27958;BME280;15295;42.658;23.374;2023-02-15T09:33:43;95885.97;;;11.16;39.51
27958;BME280;15295;42.658;23.374;2023-02-15T09:36:22;95898.31;;;11.32;39.60
27958;BME280;15295;42.658;23.374;2023-02-15T09:38:54;95897.22;;;11.37;39.52
27958;BME280;15295;42.658;23.374;2023-02-15T09:50:23;95893.00;;;11.43;38.57
27958;BME280;15295;42.658;23.374;2023-02-15T09:55:55;95888.03;;;11.52;38.11
27958;BME280;15295;42.658;23.374;2023-02-15T10:04:17;95879.63;;;11.68;38.16
27958;BME280;15295;42.658;23.374;2023-02-15T10:09:41;95885.09;;;11.97;38.11
27958;BME280;15295;42.658;23.374;2023-02-15T10:17:59;95877.31;;;12.39;37.22
27958;BME280;15295;42.658;23.374;2023-02-15T10:31:35;95857.97;;;12.66;36.10
27958;BME280;15295;42.658;23.374;2023-02-15T10:34:13;95873.59;;;12.62;36.30
27958;BME280;15295;42.658;23.374;2023-02-15T10:39:56;95856.38;;;12.61;36.81
27958;BME280;15295;42.658;23.374;2023-02-15T10:45:49;95858.75;;;12.66;37.02
27958;BME280;15295;42.658;23.374;2023-02-15T10:51:00;95842.91;;;12.96;36.03
27958;BME280;15295;42.658;23.374;2023-02-15T10:59:22;95848.06;;;13.66;35.01
27958;BME280;15295;42.658;23.374;2023-02-15T11:07:32;95835.31;;;14.48;33.40
27958;BME280;15295;42.658;23.374;2023-02-15T11:10:14;95830.59;;;14.41;33.11
27958;BME280;15295;42.658;23.374;2023-02-15T11:12:45;95827.09;;;14.65;33.45
27958;BME280;15295;42.658;23.374;2023-02-15T11:18:09;95821.94;;;15.06;32.27
27958;BME280;15295;42.658;23.374;2023-02-15T11:20:58;95836.91;;;14.98;31.97
27958;BME280;15295;42.658;23.374;2023-02-15T11:23:27;95823.16;;;14.77;32.54
27958;BME280;15295;42.658;23.374;2023-02-15T11:26:10;95800.75;;;14.61;32.75
27958;BME280;15295;42.658;23.374;2023-02-15T11:28:43;95811.75;;;14.68;32.72
27958;BME280;15295;42.658;23.374;2023-02-15T11:31:19;95825.13;;;14.66;32.81
27958;BME280;15295;42.658;23.374;2023-02-15T11:33:49;95821.97;;;14.92;32.83
27958;BME280;15295;42.658;23.374;2023-02-15T11:36:26;95811.72;;;15.10;32.34
27958;BME280;15295;42.658;23.374;2023-02-15T11:39:04;95810.13;;;15.16;32.08
27958;BME280;15295;42.658;23.374;2023-02-15T11:41:37;95825.41;;;15.38;31.85
27958;BME280;15295;42.658;23.374;2023-02-15T11:44:20;95819.56;;;15.22;31.83
27958;BME280;15295;42.658;23.374;2023-02-15T11:46:46;95814.09;;;15.05;31.96
27958;BME280;15295;42.658;23.374;2023-02-15T11:51:46;95801.41;;;15.39;31.80
27958;BME280;15295;42.658;23.374;2023-02-15T11:54:11;95798.22;;;15.55;31.69
27958;BME280;15295;42.658;23.374;2023-02-15T11:56:37;95803.69;;;15.76;31.43
27958;BME280;15295;42.658;23.374;2023-02-15T11:59:11;95786.66;;;15.95;31.29
27958;BME280;15295;42.658;23.374;2023-02-15T12:01:41;95787.47;;;15.88;30.32
27958;BME280;15295;42.658;23.374;2023-02-15T12:04:24;95778.09;;;15.75;30.48
27958;BME280;15295;42.658;23.374;2023-02-15T12:07:11;95789.50;;;15.70;30.94
27958;BME280;15295;42.658;23.374;2023-02-15T12:12:27;95786.25;;;15.96;30.82
27958;BME280;15295;42.658;23.374;2023-02-15T12:15:01;95776.59;;;16.29;30.52
27958;BME280;15295;42.658;23.374;2023-02-15T12:17:29;95774.88;;;16.46;30.00
27958;BME280;15295;42.658;23.374;2023-02-15T12:20:31;95756.84;;;16.31;29.84
27958;BME280;15295;42.658;23.374;2023-02-15T12:23:06;95753.81;;;16.18;30.03
27958;BME280;15295;42.658;23.374;2023-02-15T12:25:57;95768.72;;;16.24;30.04
27958;BME280;15295;42.658;23.374;2023-02-15T12:28:35;95770.03;;;16.02;30.11
27958;BME280;15295;42.658;23.374;2023-02-15T12:31:07;95775.31;;;15.75;30.50
27958;BME280;15295;42.658;23.374;2023-02-15T12:33:44;95778.44;;;15.84;30.57
27958;BME280;15295;42.658;23.374;2023-02-15T12:36:20;95756.00;;;15.82;30.71
27958;BME280;15295;42.658;23.374;2023-02-15T12:39:17;95762.06;;;16.18;30.22
27958;BME280;15295;42.658;23.374;2023-02-15T12:41:52;95763.97;;;16.28;30.09
27958;BME280;15295;42.658;23.374;2023-02-15T12:44:31;95750.09;;;16.39;29.96
27958;BME280;15295;42.658;23.374;2023-02-15T12:49:35;95744.28;;;16.26;30.22
27958;BME280;15295;42.658;23.374;2023-02-15T12:52:04;95738.63;;;16.44;30.07
27958;BME280;15295;42.658;23.374;2023-02-15T12:57:01;95741.56;;;16.74;29.35
27958;BME280;15295;42.658;23.374;2023-02-15T12:59:50;95739.56;;;16.74;29.35
27958;BME280;15295;42.658;23.374;2023-02-15T13:02:34;95742.81;;;16.62;29.56
27958;BME280;15295;42.658;23.374;2023-02-15T13:05:14;95741.47;;;16.81;29.44
27958;BME280;15295;42.658;23.374;2023-02-15T13:07:53;95744.53;;;16.93;29.31
27958;BME280;15295;42.658;23.374;2023-02-15T13:11:08;95746.00;;;17.02;28.77
27958;BME280;15295;42.658;23.374;2023-02-15T13:13:10;95723.06;;;17.05;28.95
27958;BME280;15295;42.658;23.374;2023-02-15T13:16:19;95731.00;;;17.03;28.65
27958;BME280;15295;42.658;23.374;2023-02-15T13:18:44;95723.56;;;16.59;29.24
27958;BME280;15295;42.658;23.374;2023-02-15T13:21:15;95734.66;;;16.48;29.33
27958;BME280;15295;42.658;23.374;2023-02-15T13:23:53;95722.38;;;16.56;29.44
27958;BME280;15295;42.658;23.374;2023-02-15T13:26:26;95727.56;;;16.47;29.57
27958;BME280;15295;42.658;23.374;2023-02-15T13:28:56;95726.78;;;16.50;29.42
27958;BME280;15295;42.658;23.374;2023-02-15T13:31:27;95724.47;;;16.38;29.83
27958;BME280;15295;42.658;23.374;2023-02-15T13:34:02;95731.28;;;16.27;29.99
27958;BME280;15295;42.658;23.374;2023-02-15T13:39:23;95730.44;;;16.33;30.18
27958;BME280;15295;42.658;23.374;2023-02-15T13:47:59;95734.00;;;16.34;29.96
27958;BME280;15295;42.658;23.374;2023-02-15T13:50:37;95734.16;;;16.09;30.33
27958;BME280;15295;42.658;23.374;2023-02-15T14:13:27;95760.19;;;15.18;31.88
27958;BME280;15295;42.658;23.374;2023-02-15T14:16:39;95754.72;;;15.00;32.20
27958;BME280;15295;42.658;23.374;2023-02-15T14:22:02;95757.50;;;14.65;32.83
27958;BME280;15295;42.658;23.374;2023-02-15T14:25:02;95763.03;;;14.30;33.93
27958;BME280;15295;42.658;23.374;2023-02-15T14:27:59;95771.59;;;14.04;34.01
27958;BME280;15295;42.658;23.374;2023-02-15T14:30:32;95770.03;;;13.96;34.10
27958;BME280;15295;42.658;23.374;2023-02-15T14:35:33;95774.63;;;13.49;34.86
27958;BME280;15295;42.658;23.374;2023-02-15T14:46:16;95766.94;;;13.04;35.74
27958;BME280;15295;42.658;23.374;2023-02-15T14:48:48;95770.09;;;13.06;35.80
27958;BME280;15295;42.658;23.374;2023-02-15T14:54:07;95769.50;;;12.76;36.32
27958;BME280;15295;42.658;23.374;2023-02-15T14:56:32;95771.44;;;12.72;36.51
27958;BME280;15295;42.658;23.374;2023-02-15T14:59:01;95752.41;;;12.42;36.63
27958;BME280;15295;42.658;23.374;2023-02-15T15:01:35;95767.66;;;12.39;36.89
27958;BME280;15295;42.658;23.374;2023-02-15T15:06:33;95761.25;;;12.21;37.31
27958;BME280;15295;42.658;23.374;2023-02-15T15:11:47;95768.88;;;11.98;37.81
27958;BME280;15295;42.658;23.374;2023-02-15T15:14:57;95770.41;;;11.96;38.16
27958;BME280;15295;42.658;23.374;2023-02-15T15:17:05;95764.31;;;11.73;38.49
27958;BME280;15295;42.658;23.374;2023-02-15T15:22:21;95770.66;;;11.50;38.79
27958;BME280;15295;42.658;23.374;2023-02-15T15:24:57;95769.72;;;11.36;38.90
27958;BME280;15295;42.658;23.374;2023-02-15T15:27:49;95780.50;;;11.22;39.30
27958;BME280;15295;42.658;23.374;2023-02-15T15:41:43;95790.94;;;10.83;40.07
27958;BME280;15295;42.658;23.374;2023-02-15T15:47:11;95789.41;;;10.59;40.47
27958;BME280;15295;42.658;23.374;2023-02-15T15:49:40;95788.81;;;10.47;40.72
27958;BME280;15295;42.658;23.374;2023-02-15T15:52:33;95798.38;;;10.34;40.91
27958;BME280;15295;42.658;23.374;2023-02-15T15:55:12;95797.09;;;10.28;41.05
27958;BME280;15295;42.658;23.374;2023-02-15T15:57:41;95795.59;;;10.30;41.10
27958;BME280;15295;42.658;23.374;2023-02-15T16:00:35;95786.13;;;10.24;41.10
27958;BME280;15295;42.658;23.374;2023-02-15T16:03:03;95790.72;;;10.20;41.45
27958;BME280;15295;42.658;23.374;2023-02-15T16:05:39;95795.22;;;10.09;41.95
27958;BME280;15295;42.658;23.374;2023-02-15T16:08:06;95773.84;;;9.92;42.07
27958;BME280;15295;42.658;23.374;2023-02-15T16:10:33;95772.19;;;9.87;42.13